createdAt,value
2018-09-28T00:02:11.351Z,1.57
2018-09-28T00:04:39.512Z,1.37
2018-09-28T00:07:07.944Z,1.50
2018-09-28T00:09:36.380Z,1.30
2018-09-28T00:12:04.827Z,1.25
2018-09-28T00:14:32.987Z,1.45
2018-09-28T00:17:01.475Z,1.40
2018-09-28T00:19:29.932Z,1.52
2018-09-28T00:21:58.378Z,1.17
2018-09-28T00:24:26.805Z,1.40
2018-09-28T00:26:55.268Z,1.53
2018-09-28T00:29:23.703Z,1.27
2018-09-28T00:31:52.112Z,1.42
2018-09-28T00:34:20.544Z,1.22
2018-09-28T00:36:48.961Z,1.03
2018-09-28T00:39:17.407Z,1.00
2018-09-28T00:41:45.849Z,0.98
2018-09-28T00:44:14.314Z,0.93
2018-09-28T00:46:42.725Z,1.17
2018-09-28T00:49:11.180Z,0.98
2018-09-28T00:51:40.026Z,0.98
2018-09-28T00:54:08.496Z,1.10
2018-09-28T00:56:36.917Z,1.10
2018-09-28T00:59:05.377Z,0.90
2018-09-28T01:01:33.795Z,0.90
2018-09-28T01:04:02.253Z,0.90
2018-09-28T01:06:30.676Z,0.90
2018-09-28T01:08:59.097Z,1.05
2018-09-28T01:11:27.439Z,0.70
2018-09-28T01:13:55.961Z,0.90
2018-09-28T01:16:24.373Z,0.85
2018-09-28T01:18:52.809Z,0.93
2018-09-28T01:21:21.217Z,0.80
2018-09-28T01:23:49.636Z,0.90
2018-09-28T01:26:18.049Z,0.95
2018-09-28T01:28:46.453Z,0.70
2018-09-28T01:31:14.886Z,0.93
2018-09-28T01:33:43.289Z,1.02
2018-09-28T01:36:11.418Z,0.70
2018-09-28T01:38:39.812Z,0.88
2018-09-28T01:41:08.252Z,0.80
2018-09-28T01:43:36.662Z,0.90
2018-09-28T01:46:05.086Z,1.17
2018-09-28T01:48:33.497Z,0.90
2018-09-28T01:51:01.902Z,0.75
2018-09-28T01:53:30.304Z,1.00
2018-09-28T01:55:58.793Z,0.90
2018-09-28T01:58:27.189Z,0.95
2018-09-28T02:00:55.632Z,0.87
2018-09-28T02:03:24.083Z,0.82
2018-09-28T02:05:52.548Z,1.00
2018-09-28T02:08:20.960Z,0.88
2018-09-28T02:10:49.412Z,1.07
2018-09-28T02:13:17.930Z,0.88
2018-09-28T02:15:46.989Z,1.05
2018-09-28T02:18:15.341Z,0.90
2018-09-28T02:20:43.782Z,1.20
2018-09-28T02:23:11.876Z,1.00
2018-09-28T02:25:40.303Z,0.85
2018-09-28T02:28:08.407Z,0.88
2018-09-28T02:30:36.933Z,0.98
2018-09-28T02:33:05.608Z,1.00
2018-09-28T02:35:33.729Z,1.10
2018-09-28T02:38:02.199Z,0.80
2018-09-28T02:40:30.650Z,1.00
2018-09-28T02:42:59.107Z,0.62
2018-09-28T02:45:27.628Z,0.90
2018-09-28T02:47:56.099Z,0.75
2018-09-28T02:50:24.535Z,0.70
2018-09-28T02:52:52.993Z,0.80
2018-09-28T02:55:21.495Z,0.85
2018-09-28T02:57:49.896Z,0.90
2018-09-28T03:00:18.037Z,0.82
2018-09-28T03:02:46.452Z,0.70
2018-09-28T03:05:14.953Z,0.67
2018-09-28T03:07:43.380Z,1.00
2018-09-28T03:10:11.821Z,0.90
2018-09-28T03:12:40.258Z,0.80
2018-09-28T03:15:08.840Z,0.70
2018-09-28T03:17:37.253Z,0.82
2018-09-28T03:20:05.804Z,0.82
2018-09-28T03:22:34.329Z,0.80
2018-09-28T03:25:02.766Z,0.80
2018-09-28T03:27:31.281Z,0.95
2018-09-28T03:29:59.689Z,0.95
2018-09-28T03:32:28.124Z,0.62
2018-09-28T03:34:56.561Z,0.80
2018-09-28T03:37:25.041Z,0.90
2018-09-28T03:39:53.500Z,0.90
2018-09-28T03:42:21.941Z,1.00
2018-09-28T03:44:50.357Z,1.00
2018-09-28T03:47:18.833Z,0.68
2018-09-28T03:49:47.240Z,1.13
2018-09-28T03:52:15.765Z,0.80
2018-09-28T03:54:43.870Z,0.70
2018-09-28T03:57:12.359Z,0.70
2018-09-28T03:59:40.768Z,0.88
2018-09-28T04:02:09.239Z,0.80
2018-09-28T04:04:37.645Z,0.70
2018-09-28T04:07:06.081Z,0.80
2018-09-28T04:09:34.477Z,0.70
2018-09-28T04:12:02.934Z,0.57
2018-09-28T04:14:31.412Z,0.70
2018-09-28T04:16:59.832Z,0.67
2018-09-28T04:19:28.231Z,0.80
2018-09-28T04:22:00.288Z,0.68
2018-09-28T04:24:29.876Z,0.50
2018-09-28T04:26:58.387Z,0.90
2018-09-28T04:29:27.028Z,0.80
2018-09-28T04:31:55.588Z,1.03
2018-09-28T04:34:24.053Z,0.90
2018-09-28T04:36:52.660Z,0.80
2018-09-28T04:39:21.127Z,0.80
2018-09-28T04:41:49.525Z,0.87
2018-09-28T04:44:17.985Z,0.90
2018-09-28T04:46:46.418Z,0.80
2018-09-28T04:49:14.852Z,0.90
2018-09-28T04:51:43.253Z,1.00
2018-09-28T04:54:11.699Z,0.70
2018-09-28T04:56:40.131Z,0.80
2018-09-28T04:59:08.613Z,0.68
2018-09-28T05:01:37.127Z,0.70
2018-09-28T05:04:05.597Z,0.70
2018-09-28T05:06:33.692Z,0.70
2018-09-28T05:09:02.176Z,0.70
2018-09-28T05:11:30.580Z,0.83
2018-09-28T05:13:59.089Z,0.63
2018-09-28T05:16:27.593Z,0.93
2018-09-28T05:18:56.025Z,0.75
2018-09-28T05:21:24.468Z,0.70
2018-09-28T05:23:52.889Z,0.68
2018-09-28T05:26:21.313Z,0.67
2018-09-28T05:28:49.744Z,1.00
2018-09-28T05:31:18.308Z,0.93
2018-09-28T05:33:46.617Z,0.90
2018-09-28T05:36:15.065Z,0.80
2018-09-28T05:38:43.483Z,0.70
2018-09-28T05:41:11.921Z,1.12
2018-09-28T05:43:40.385Z,0.70
2018-09-28T05:46:08.871Z,0.70
2018-09-28T05:48:37.257Z,0.93
2018-09-28T05:51:06.073Z,0.90
2018-09-28T05:53:34.493Z,0.70
2018-09-28T05:56:02.938Z,1.00
2018-09-28T05:58:36.594Z,0.80
2018-09-28T06:01:10.348Z,0.88
2018-09-28T06:03:44.045Z,1.00
2018-09-28T06:06:12.504Z,0.98
2018-09-28T06:08:40.905Z,0.98
2018-09-28T06:11:09.351Z,0.80
2018-09-28T06:13:37.805Z,1.15
2018-09-28T06:16:06.289Z,0.90
2018-09-28T06:18:34.715Z,1.07
2018-09-28T06:21:03.219Z,1.25
2018-09-28T06:23:31.672Z,1.42
2018-09-28T06:26:00.156Z,1.00
2018-09-28T06:28:28.538Z,0.80
2018-09-28T06:30:56.943Z,0.93
2018-09-28T06:33:25.393Z,0.90
2018-09-28T06:35:53.870Z,0.70
2018-09-28T06:38:21.987Z,0.72
2018-09-28T06:40:50.412Z,1.15
2018-09-28T06:43:18.837Z,0.80
2018-09-28T06:45:47.276Z,0.75
2018-09-28T06:48:15.872Z,0.78
2018-09-28T06:50:44.272Z,0.82
2018-09-28T06:53:12.704Z,0.95
2018-09-28T06:55:41.109Z,0.90
2018-09-28T06:58:09.599Z,1.12
2018-09-28T07:00:38.183Z,0.80
2018-09-28T07:03:06.589Z,0.88
2018-09-28T07:05:35.038Z,0.90
2018-09-28T07:08:03.154Z,1.30
2018-09-28T07:10:31.590Z,1.00
2018-09-28T07:13:00.037Z,0.90
2018-09-28T07:15:28.452Z,1.00
2018-09-28T07:17:56.858Z,1.07
2018-09-28T07:20:24.996Z,1.07
2018-09-28T07:22:53.593Z,1.02
2018-09-28T07:25:22.025Z,0.95
2018-09-28T07:27:50.449Z,1.02
2018-09-28T07:30:18.941Z,1.40
2018-09-28T07:32:47.337Z,0.98
2018-09-28T07:35:15.793Z,1.17
2018-09-28T07:37:44.229Z,1.12
2018-09-28T07:40:12.664Z,1.37
2018-09-28T07:42:41.067Z,1.20
2018-09-28T07:45:09.573Z,1.20
2018-09-28T07:47:37.987Z,1.27
2018-09-28T07:50:06.638Z,1.67
2018-09-28T07:52:35.055Z,1.30
2018-09-28T07:55:03.633Z,1.35
2018-09-28T07:57:31.727Z,0.98
2018-09-28T08:00:00.156Z,1.30
2018-09-28T08:02:28.632Z,1.40
2018-09-28T08:04:57.101Z,1.77
2018-09-28T08:07:25.533Z,1.30
2018-09-28T08:09:54.011Z,1.05
2018-09-28T08:12:22.910Z,1.20
2018-09-28T08:14:51.420Z,1.45
2018-09-28T08:17:20.008Z,1.40
2018-09-28T08:19:48.461Z,1.47
2018-09-28T08:22:17.047Z,1.27
2018-09-28T08:24:45.539Z,1.52
2018-09-28T08:27:13.933Z,1.35
2018-09-28T08:29:42.416Z,1.40
2018-09-28T08:32:10.985Z,1.32
2018-09-28T08:34:39.382Z,1.52
2018-09-28T08:37:07.834Z,1.30
2018-09-28T08:39:36.399Z,1.25
2018-09-28T08:42:05.314Z,1.15
2018-09-28T08:44:33.717Z,1.10
2018-09-28T08:47:02.329Z,0.93
2018-09-28T08:49:30.736Z,1.20
2018-09-28T08:51:59.557Z,1.30
2018-09-28T08:54:28.011Z,0.90
2018-09-28T08:56:56.468Z,1.20
2018-09-28T08:59:25.053Z,1.40
2018-09-28T09:01:53.567Z,1.40
2018-09-28T09:04:21.981Z,1.50
2018-09-28T09:06:50.429Z,1.67
2018-09-28T09:09:18.836Z,1.25
2018-09-28T09:11:47.276Z,1.52
2018-09-28T09:14:15.699Z,1.35
2018-09-28T09:16:44.181Z,1.40
2018-09-28T09:19:12.295Z,1.80
2018-09-28T09:21:40.773Z,1.42
2018-09-28T09:24:09.173Z,1.75
2018-09-28T09:26:37.616Z,1.45
2018-09-28T09:29:05.725Z,1.12
2018-09-28T09:31:34.204Z,1.62
2018-09-28T09:34:02.620Z,1.30
2018-09-28T09:36:31.150Z,1.80
2018-09-28T09:38:59.608Z,1.90
2018-09-28T09:41:28.103Z,1.50
2018-09-28T09:43:56.518Z,1.42
2018-09-28T09:46:24.965Z,1.65
2018-09-28T09:48:53.405Z,1.40
2018-09-28T09:51:21.854Z,1.47
2018-09-28T09:53:50.270Z,1.67
2018-09-28T09:56:18.710Z,1.27
2018-09-28T09:58:47.141Z,1.30
2018-09-28T10:01:20.870Z,1.10
2018-09-28T10:03:50.506Z,1.20
2018-09-28T10:06:19.091Z,1.67
2018-09-28T10:08:47.957Z,1.32
2018-09-28T10:11:16.446Z,1.60
2018-09-28T10:13:44.912Z,1.50
2018-09-28T10:16:13.423Z,1.67
2018-09-28T10:18:41.840Z,1.52
2018-09-28T10:21:10.461Z,1.50
2018-09-28T10:23:38.888Z,1.30
2018-09-28T10:26:07.289Z,1.70
2018-09-28T10:28:36.025Z,1.40
2018-09-28T10:31:04.477Z,2.02
2018-09-28T10:33:32.686Z,1.00
2018-09-28T10:36:01.126Z,1.15
2018-09-28T10:38:29.478Z,1.17
2018-09-28T10:40:58.091Z,1.15
2018-09-28T10:43:26.512Z,1.20
2018-09-28T10:45:54.934Z,1.15
2018-09-28T10:48:23.371Z,1.37
2018-09-28T10:50:51.951Z,1.10
2018-09-28T10:53:20.581Z,1.60
2018-09-28T10:55:49.021Z,2.05
2018-09-28T10:58:17.481Z,1.20
2018-09-28T11:00:45.934Z,1.32
2018-09-28T11:03:14.416Z,1.37
2018-09-28T11:05:42.844Z,1.10
2018-09-28T11:08:11.297Z,1.30
2018-09-28T11:10:39.763Z,1.10
2018-09-28T11:13:08.256Z,1.27
2018-09-28T11:15:36.997Z,1.45
2018-09-28T11:18:05.464Z,1.30
2018-09-28T11:20:33.880Z,1.10
2018-09-28T11:23:02.319Z,1.30
2018-09-28T11:25:30.449Z,1.15
2018-09-28T11:27:58.884Z,1.40
2018-09-28T11:30:27.300Z,1.55
2018-09-28T11:32:55.664Z,1.75
2018-09-28T11:35:24.051Z,1.20
2018-09-28T11:37:52.795Z,1.40
2018-09-28T11:40:21.140Z,1.25
2018-09-28T11:42:49.256Z,1.20
2018-09-28T11:45:17.730Z,1.07
2018-09-28T11:47:46.141Z,1.47
2018-09-28T11:50:14.558Z,1.70
2018-09-28T11:52:43.022Z,1.62
2018-09-28T11:55:11.461Z,1.67
2018-09-28T11:57:39.928Z,1.65
2018-09-28T12:00:08.395Z,1.30
2018-09-28T12:02:36.865Z,1.95
2018-09-28T12:05:05.386Z,1.60
2018-09-28T12:07:34.104Z,1.32
2018-09-28T12:10:02.585Z,1.70
2018-09-28T12:12:31.199Z,1.40
2018-09-28T12:14:59.368Z,1.50
2018-09-28T12:17:27.797Z,1.20
2018-09-28T12:19:56.392Z,1.62
2018-09-28T12:22:24.816Z,1.77
2018-09-28T12:24:53.260Z,1.52
2018-09-28T12:27:21.902Z,1.87
2018-09-28T12:29:50.392Z,1.50
2018-09-28T12:32:18.825Z,1.55
2018-09-28T12:34:47.668Z,1.45
2018-09-28T12:37:16.144Z,1.30
2018-09-28T12:39:44.664Z,1.35
2018-09-28T12:42:12.791Z,1.35
2018-09-28T12:44:41.444Z,1.60
2018-09-28T12:47:09.834Z,1.22
2018-09-28T12:49:38.284Z,1.70
2018-09-28T12:52:06.732Z,1.00
2018-09-28T12:54:35.316Z,1.40
2018-09-28T12:57:03.721Z,1.10
2018-09-28T12:59:32.223Z,1.52
2018-09-28T13:02:00.653Z,1.40
2018-09-28T13:04:29.105Z,1.42
2018-09-28T13:06:57.549Z,1.85
2018-09-28T13:09:26.014Z,1.85
2018-09-28T13:11:54.416Z,1.50
2018-09-28T13:14:22.957Z,1.52
2018-09-28T13:16:51.403Z,1.57
2018-09-28T13:19:19.890Z,1.35
2018-09-28T13:21:48.403Z,1.45
2018-09-28T13:24:16.854Z,1.20
2018-09-28T13:26:45.292Z,1.85
2018-09-28T13:29:13.753Z,1.60
2018-09-28T13:31:42.175Z,1.32
2018-09-28T13:34:10.641Z,1.55
2018-09-28T13:36:39.117Z,1.52
2018-09-28T13:39:08.950Z,1.25
2018-09-28T13:41:37.661Z,1.75
2018-09-28T13:44:06.131Z,1.40
2018-09-28T13:46:34.597Z,1.60
2018-09-28T13:49:02.896Z,1.55
2018-09-28T13:51:31.060Z,1.50
2018-09-28T13:53:59.753Z,1.45
2018-09-28T13:56:28.290Z,1.90
2018-09-28T13:58:56.760Z,1.50
2018-09-28T14:01:25.193Z,1.50
2018-09-28T14:03:53.629Z,1.27
2018-09-28T14:06:22.161Z,1.52
2018-09-28T14:08:50.261Z,1.35
2018-09-28T14:11:18.708Z,1.50
2018-09-28T14:13:47.156Z,1.47
2018-09-28T14:16:15.605Z,1.75
2018-09-28T14:18:44.090Z,1.60
2018-09-28T14:21:12.539Z,1.70
2018-09-28T14:23:40.968Z,1.85
2018-09-28T14:26:09.427Z,2.05
2018-09-28T14:28:38.125Z,1.67
2018-09-28T14:31:06.851Z,1.72
2018-09-28T14:33:35.306Z,1.67
2018-09-28T14:36:03.936Z,1.87
2018-09-28T14:38:32.382Z,1.75
2018-09-28T14:41:00.865Z,1.77
2018-09-28T14:43:28.988Z,1.75
2018-09-28T14:45:57.445Z,2.50
2018-09-28T14:48:25.873Z,1.45
2018-09-28T14:50:54.332Z,1.42
2018-09-28T14:53:22.738Z,1.60
2018-09-28T14:55:51.248Z,2.30
2018-09-28T14:58:19.709Z,1.40
2018-09-28T15:00:48.272Z,1.70
2018-09-28T15:03:16.773Z,1.80
2018-09-28T15:05:45.269Z,1.37
2018-09-28T15:08:13.398Z,1.45
2018-09-28T15:10:41.901Z,1.50
2018-09-28T15:13:10.044Z,1.47
2018-09-28T15:15:38.193Z,1.52
2018-09-28T15:18:07.382Z,1.67
2018-09-28T15:20:35.918Z,1.57
2018-09-28T15:23:04.365Z,1.20
2018-09-28T15:25:32.820Z,1.85
2018-09-28T15:28:01.274Z,1.40
2018-09-28T15:30:29.752Z,1.32
2018-09-28T15:32:58.196Z,1.37
2018-09-28T15:35:26.880Z,1.72
2018-09-28T15:37:55.278Z,1.47
2018-09-28T15:40:23.713Z,1.27
2018-09-28T15:42:52.185Z,1.40
2018-09-28T15:45:20.599Z,2.30
2018-09-28T15:47:51.429Z,1.67
2018-09-28T15:50:19.833Z,2.60
2018-09-28T15:52:48.289Z,1.80
2018-09-28T15:55:16.579Z,1.55
2018-09-28T15:57:45.053Z,1.75
2018-09-28T16:00:13.485Z,1.67
2018-09-28T16:02:41.921Z,1.47
2018-09-28T16:05:10.333Z,1.57
2018-09-28T16:07:38.796Z,1.32
2018-09-28T16:10:07.265Z,1.55
2018-09-28T16:12:35.718Z,1.50
2018-09-28T16:15:04.222Z,1.67
2018-09-28T16:17:32.689Z,1.70
2018-09-28T16:20:01.148Z,1.60
2018-09-28T16:22:29.591Z,1.57
2018-09-28T16:24:58.018Z,1.55
2018-09-28T16:27:26.601Z,1.70
2018-09-28T16:29:55.139Z,1.47
2018-09-28T16:32:23.600Z,1.80
2018-09-28T16:34:52.012Z,2.10
2018-09-28T16:37:21.185Z,2.00
2018-09-28T16:39:49.745Z,1.85
2018-09-28T16:42:18.304Z,2.25
2018-09-28T16:44:46.745Z,2.00
2018-09-28T16:47:14.872Z,2.80
2018-09-28T16:49:43.305Z,2.17
2018-09-28T16:52:11.843Z,2.67
2018-09-28T16:54:40.271Z,2.30
2018-09-28T16:57:08.749Z,2.00
2018-09-28T16:59:37.173Z,2.37
2018-09-28T17:02:05.607Z,2.05
2018-09-28T17:04:34.056Z,1.98
2018-09-28T17:07:02.503Z,1.65
2018-09-28T17:09:30.913Z,1.40
2018-09-28T17:11:59.406Z,1.52
2018-09-28T17:14:27.912Z,1.92
2018-09-28T17:16:56.370Z,1.82
2018-09-28T17:19:24.973Z,1.85
2018-09-28T17:21:53.424Z,1.92
2018-09-28T17:24:21.885Z,1.95
2018-09-28T17:26:50.305Z,2.02
2018-09-28T17:29:18.750Z,2.08
2018-09-28T17:31:47.186Z,2.45
2018-09-28T17:34:15.644Z,2.10
2018-09-28T17:36:44.077Z,1.98
2018-09-28T17:39:13.310Z,1.72
2018-09-28T17:41:41.732Z,1.80
2018-09-28T17:44:10.573Z,2.37
2018-09-28T17:46:38.989Z,2.10
2018-09-28T17:49:07.648Z,2.10
2018-09-28T17:51:36.140Z,2.17
2018-09-28T17:54:04.744Z,2.20
2018-09-28T17:56:33.093Z,2.10
2018-09-28T17:59:01.553Z,2.72
2018-09-28T18:01:30.017Z,2.80
2018-09-28T18:03:58.492Z,2.85
2018-09-28T18:06:26.905Z,2.47
2018-09-28T18:08:55.040Z,2.45
2018-09-28T18:11:23.485Z,2.72
2018-09-28T18:13:51.949Z,2.90
2018-09-28T18:16:20.359Z,2.60
2018-09-28T18:18:49.297Z,2.75
2018-09-28T18:21:18.083Z,2.95
2018-09-28T18:23:46.556Z,2.27
2018-09-28T18:26:15.009Z,2.77
2018-09-28T18:28:43.493Z,2.30
2018-09-28T18:31:11.969Z,3.10
2018-09-28T18:33:40.627Z,2.87
2018-09-28T18:36:09.025Z,2.85
2018-09-28T18:38:37.498Z,3.02
2018-09-28T18:41:06.041Z,2.92
2018-09-28T18:43:34.509Z,3.10
2018-09-28T18:46:02.925Z,3.22
2018-09-28T18:48:31.568Z,3.50
2018-09-28T18:51:00.021Z,3.37
2018-09-28T18:53:28.469Z,2.70
2018-09-28T18:55:57.300Z,3.15
2018-09-28T18:58:25.953Z,3.42
2018-09-28T19:00:54.434Z,3.33
2018-09-28T19:03:23.161Z,2.77
2018-09-28T19:05:51.576Z,2.30
2018-09-28T19:08:20.018Z,3.05
2018-09-28T19:10:48.429Z,2.98
2018-09-28T19:13:16.933Z,2.75
2018-09-28T19:15:45.356Z,2.77
2018-09-28T19:18:13.789Z,2.85
2018-09-28T19:20:42.223Z,2.98
2018-09-28T19:23:10.656Z,2.83
2018-09-28T19:25:39.113Z,3.30
2018-09-28T19:28:07.582Z,3.05
2018-09-28T19:30:36.090Z,3.50
2018-09-28T19:33:04.509Z,2.72
2018-09-28T19:35:32.960Z,3.12
2018-09-28T19:38:01.411Z,3.05
2018-09-28T19:40:31.045Z,2.87
2018-09-28T19:42:59.500Z,2.83
2018-09-28T19:45:27.953Z,2.83
2018-09-28T19:47:56.392Z,2.85
2018-09-28T19:50:24.874Z,4.33
2018-09-28T19:52:53.301Z,3.00
2018-09-28T19:55:21.780Z,2.85
2018-09-28T19:57:50.327Z,3.22
2018-09-28T20:00:18.706Z,3.85
2018-09-28T20:02:47.155Z,3.27
2018-09-28T20:05:15.592Z,2.65
2018-09-28T20:07:43.708Z,3.47
2018-09-28T20:10:12.187Z,3.08
2018-09-28T20:12:40.597Z,3.25
2018-09-28T20:15:09.092Z,3.55
2018-09-28T20:17:37.535Z,3.60
2018-09-28T20:20:06.080Z,3.90
2018-09-28T20:22:34.493Z,3.72
2018-09-28T20:25:02.931Z,3.85
2018-09-28T20:27:31.377Z,3.65
2018-09-28T20:29:59.907Z,3.27
2018-09-28T20:32:28.973Z,3.20
2018-09-28T20:34:57.401Z,3.65
2018-09-28T20:37:25.917Z,4.62
2018-09-28T20:39:54.384Z,3.77
2018-09-28T20:42:22.814Z,3.77
2018-09-28T20:44:51.271Z,4.30
2018-09-28T20:47:19.713Z,4.00
2018-09-28T20:49:48.193Z,4.40
2018-09-28T20:52:16.688Z,4.70
2018-09-28T20:54:45.125Z,4.50
2018-09-28T20:57:13.575Z,4.28
2018-09-28T20:59:42.057Z,5.37
2018-09-28T21:02:10.164Z,4.35
2018-09-28T21:04:38.626Z,4.62
2018-09-28T21:07:07.289Z,4.78
2018-09-28T21:09:35.713Z,4.40
2018-09-28T21:12:04.207Z,5.80
2018-09-28T21:14:32.651Z,4.40
2018-09-28T21:17:01.112Z,4.97
2018-09-28T21:19:29.540Z,4.45
2018-09-28T21:21:57.972Z,4.65
2018-09-28T21:24:26.400Z,4.65
2018-09-28T21:26:55.274Z,4.22
2018-09-28T21:29:23.360Z,3.92
2018-09-28T21:31:51.801Z,4.22
2018-09-28T21:34:20.273Z,3.58
2018-09-28T21:36:48.428Z,3.90
2018-09-28T21:39:16.865Z,3.52
2018-09-28T21:41:45.347Z,3.67
2018-09-28T21:44:13.772Z,3.52
2018-09-28T21:46:42.249Z,3.25
2018-09-28T21:49:10.697Z,2.62
2018-09-28T21:51:39.140Z,3.15
2018-09-28T21:54:08.061Z,3.20
2018-09-28T21:56:36.510Z,2.35
2018-09-28T21:59:04.964Z,2.47
2018-09-28T22:01:33.400Z,2.90
2018-09-28T22:04:01.825Z,1.82
2018-09-28T22:06:30.262Z,2.40
2018-09-28T22:08:58.694Z,2.70
2018-09-28T22:11:27.196Z,2.40
2018-09-28T22:13:55.684Z,2.70
2018-09-28T22:16:24.157Z,2.33
2018-09-28T22:18:52.240Z,2.35
2018-09-28T22:21:20.815Z,2.02
2018-09-28T22:23:49.237Z,2.62
2018-09-28T22:26:17.722Z,2.37
2018-09-28T22:28:46.130Z,2.08
2018-09-28T22:31:14.609Z,1.92
2018-09-28T22:33:43.012Z,1.98
2018-09-28T22:36:11.445Z,2.20
2018-09-28T22:38:39.880Z,2.17
2018-09-28T22:41:08.069Z,1.80
2018-09-28T22:43:36.493Z,2.12
2018-09-28T22:46:04.620Z,2.27
2018-09-28T22:48:33.049Z,2.22
2018-09-28T22:51:01.468Z,2.10
2018-09-28T22:53:29.909Z,2.40
2018-09-28T22:55:58.368Z,2.30
2018-09-28T22:58:26.808Z,2.27
2018-09-28T23:00:55.253Z,2.15
2018-09-28T23:03:23.730Z,2.47
2018-09-28T23:05:52.148Z,2.95
2018-09-28T23:08:20.615Z,2.70
2018-09-28T23:10:49.084Z,2.70
2018-09-28T23:13:17.541Z,3.05
2018-09-28T23:15:45.800Z,2.75
2018-09-28T23:18:14.384Z,2.85
2018-09-28T23:20:42.816Z,3.40
2018-09-28T23:23:11.293Z,3.02
2018-09-28T23:25:39.742Z,3.37
2018-09-28T23:28:08.184Z,2.92
2018-09-28T23:30:36.597Z,3.20
2018-09-28T23:33:05.040Z,3.30
2018-09-28T23:35:33.450Z,4.03
2018-09-28T23:38:01.893Z,5.00
2018-09-28T23:40:30.383Z,3.80
2018-09-28T23:42:58.527Z,4.08
2018-09-28T23:45:26.937Z,4.47
2018-09-28T23:47:55.488Z,4.08
2018-09-28T23:50:23.941Z,3.98
2018-09-28T23:52:52.686Z,4.70
2018-09-28T23:55:21.125Z,4.33
2018-09-28T23:57:49.575Z,4.42
